Weather at Aeroflex-Andover Airport

Public forecast

Using degrees Fahrenheit for public forecast. Weather courtesy of forecast.io.

Current aviation weather report (METAR) for Aeroflex-Andover Airport

Retrieved 2020/10/30 11:54 UTC (33 minutes ago):

K12N 301154Z AUTO 36003KT 01/01 A2980 RMK AO1 SLP097 P0011 60037 70198 T00110006 10067 20011 51041

Closest aviation forecast (TAF) to Aeroflex-Andover Airport

Closest forecast is Newark Liberty International Airport, 32.1 nm (59.4 km) SE. Retrieved 2020/10/30 12:33 UTC (0 seconds ago):

TAF KEWR 301130Z 3012/3118 01016G24KT 3SM -RA BR SCT008 OVC012 FM301400 01014G21KT 5SM -RA BR SCT008 OVC015 FM301800 36013G20KT P6SM BKN020 OVC060 FM302100 36011KT P6SM SCT025 BKN035 FM310100 36007KT P6SM SCT025 BKN035 FM310800 35006KT P6SM SKC FM311500 01005KT P6SM SKC